Brampton, North Dakota
Current Conditions -  °F | °C
As of 6:35 AM on Sunday 25 Jan 2015 (Local Time) from KGWR Reporting Station
Overcast Overcast  
Wind Chill: 11°   Ceiling: 2600
Heat Index: 23°   Visibility: 10mi
Dew Point: 21°   Wind: 13mph
Humidity: 93%   Direction: 360°N
Pressure: 29.98"   Gusts: NA
Location:  46.0772°N, 97.8609°W
Report Text: KGWR 251235Z AUTO 36011KT 10SM OVC026 M05/M06 A2998 RMK A01 P000
Loading
Personal Weather Stations






























Interactive Weather Map New forecast layout! Learn more

10-Day Weather Forecast

Advertisements
Track Severe Weather on mobile